Terminal Aerodrome Forecast
Issued by NWS Boston, MA

Home | Current Version | Previous Version | Text Only | Print | Product List | Glossary On
Versions: 1 2 3 4 5 6 7 8 9 10 11 12 13 14 15 16 17 18 19 20 21 22 23 24 25 26 27 28 29 30 31 32 33 34 35 36 37 38 39 40 41 42 43 44 45 46 47 48 49 50
000
FTUS41 KBOX 250909 AAA
TAFBDL
TAF AMD
KBDL 250909Z 2509/2612 01006KT P6SM -RA OVC030
     FM251100 02008KT 3SM -RAPL BR OVC020
     FM251300 03008KT 2SM -RAPL BR OVC010
     FM251400 04008KT 2SM -RA BR OVC008
     FM252100 03006KT 3SM BR OVC008
     FM260100 VRB03KT 3SM BR BKN025
     FM260600 00000KT P6SM BKN250=

USA.gov is the U.S. government's official web portal to all federal, state and local government web resources and services.